Startpagina
METAR-TAF:

METAR-TAF

Vliegvelden :

Chugiak, Alaska, Verenigde Staten

breedte: 61-25N, lengte: 149-31W, hoogte: 29 m

Actueel weer

Dit bericht is 35 minuten geleden gemaakt, om 16:23 UTC
Wind 3 kt uit het zuidwesten
Temperatuur 1°C
Vochtigheid 86%
Druk 995 hPa
Zicht: 16.1 km
Geheel bewolkt op 800 ft
onbekend

METAR: PABV 181623Z AUTO 22003KT 10SM UP OVC008 01/M01 A2938 RMK AO2 UPB05SNE05 CIG 004V009 P0000 FZRANO

Tijdstip: 08:58 (16:58 UTC)


TAF: ontbreekt

Waarnemingen en weersverwachtingen van meer dan 4000 vliegvelden (METAR en TAF).

De beschikbare stations zijn de gele en rode punten op de kaart.

Ga met uw muis naar het station om de naam te zien.

Klik dan om waarnemingen en weersverwachtingen te zien.

kaart wijzigen: klik op de groene knoppen met een zwart kruis om in te zoomen, op de groene knop met een streepje om uit te zoomen of op de groene pijlen voor aangrenzende kaarten.


METAR-TAF: